createdAt,value
2018-09-26T00:00:42.307Z,2.80
2018-09-26T00:03:20.756Z,3.10
2018-09-26T00:05:54.017Z,2.70
2018-09-26T00:08:27.208Z,3.00
2018-09-26T00:11:00.475Z,2.70
2018-09-26T00:13:34.023Z,2.77
2018-09-26T00:16:07.224Z,2.70
2018-09-26T00:18:40.768Z,2.57
2018-09-26T00:21:13.951Z,2.70
2018-09-26T00:23:47.291Z,2.70
2018-09-26T00:26:20.512Z,2.67
2018-09-26T00:28:53.705Z,2.50
2018-09-26T00:31:27.067Z,2.90
2018-09-26T00:34:00.192Z,2.67
2018-09-26T00:36:33.214Z,2.67
2018-09-26T00:39:07.404Z,2.77
2018-09-26T00:41:40.433Z,2.57
2018-09-26T00:44:14.636Z,2.30
2018-09-26T00:46:47.849Z,2.80
2018-09-26T00:49:20.902Z,2.70
2018-09-26T00:51:54.850Z,2.80
2018-09-26T00:54:28.207Z,2.13
2018-09-26T00:57:01.662Z,2.50
2018-09-26T00:59:34.502Z,2.17
2018-09-26T01:02:07.796Z,2.23
2018-09-26T01:04:41.221Z,2.50
2018-09-26T01:07:14.474Z,2.70
2018-09-26T01:09:47.818Z,2.70
2018-09-26T01:12:22.713Z,2.50
2018-09-26T01:14:57.495Z,2.60
2018-09-26T01:17:30.944Z,2.53
2018-09-26T01:20:04.973Z,2.10
2018-09-26T01:22:38.357Z,2.53
2018-09-26T01:25:11.030Z,2.40
2018-09-26T01:27:46.360Z,2.20
2018-09-26T01:30:20.737Z,2.50
2018-09-26T01:32:54.535Z,2.30
2018-09-26T01:35:27.753Z,2.13
2018-09-26T01:38:01.222Z,2.23
2018-09-26T01:40:36.916Z,2.70
2018-09-26T01:43:10.343Z,2.40
2018-09-26T01:45:43.316Z,2.90
2018-09-26T01:48:16.661Z,2.43
2018-09-26T01:50:52.685Z,2.67
2018-09-26T01:53:27.074Z,2.50
2018-09-26T01:56:01.023Z,3.17
2018-09-26T01:58:34.436Z,2.90
2018-09-26T02:01:10.069Z,2.87
2018-09-26T02:03:46.850Z,3.00
2018-09-26T02:06:20.586Z,3.03
2018-09-26T02:08:56.043Z,2.67
2018-09-26T02:11:29.729Z,2.60
2018-09-26T02:14:03.203Z,3.20
2018-09-26T02:16:39.577Z,2.57
2018-09-26T02:19:12.854Z,3.20
2018-09-26T02:21:46.670Z,3.30
2018-09-26T02:24:23.978Z,2.93
2018-09-26T02:26:57.466Z,2.50
2018-09-26T02:29:30.754Z,2.80
2018-09-26T02:32:08.167Z,3.20
2018-09-26T02:34:43.989Z,3.13
2018-09-26T02:37:18.281Z,2.80
2018-09-26T02:42:30.130Z,3.23
2018-09-26T02:45:05.389Z,3.00
2018-09-26T02:47:39.372Z,3.53
2018-09-26T02:50:13.357Z,3.20
2018-09-26T02:52:51.073Z,3.20
2018-09-26T02:55:27.753Z,3.20
2018-09-26T02:58:02.699Z,3.53
2018-09-26T03:00:39.315Z,3.00
2018-09-26T03:03:22.178Z,3.20
2018-09-26T03:05:58.773Z,3.20
2018-09-26T03:08:35.112Z,2.70
2018-09-26T03:14:04.684Z,3.03
2018-09-26T03:16:51.323Z,2.70
2018-09-26T03:19:29.432Z,2.90
2018-09-26T03:22:10.094Z,2.80
2018-09-26T03:24:45.629Z,3.00
2018-09-26T03:27:19.287Z,3.10
2018-09-26T03:29:54.039Z,3.03
2018-09-26T03:32:36.737Z,2.93
2018-09-26T03:35:12.087Z,4.23
2018-09-26T03:37:46.007Z,3.70
2018-09-26T03:40:22.738Z,4.70
2018-09-26T03:42:56.638Z,3.87
2018-09-26T03:45:30.590Z,4.80
2018-09-26T03:48:05.254Z,5.07
2018-09-26T03:50:38.960Z,3.60
2018-09-26T03:53:12.817Z,3.80
2018-09-26T03:55:47.517Z,3.50
2018-09-26T03:58:20.554Z,3.67
2018-09-26T04:00:53.775Z,3.40
2018-09-26T04:03:27.358Z,4.00
2018-09-26T04:06:02.021Z,3.43
2018-09-26T04:08:35.464Z,3.27
2018-09-26T04:11:09.016Z,3.27
2018-09-26T04:13:42.586Z,3.53
2018-09-26T04:16:16.457Z,3.50
2018-09-26T04:18:54.007Z,3.43
2018-09-26T04:21:27.002Z,3.20
2018-09-26T04:24:00.206Z,3.20
2018-09-26T04:26:40.379Z,3.57
2018-09-26T04:29:14.217Z,3.40
2018-09-26T04:31:47.533Z,3.00
2018-09-26T04:34:20.928Z,3.10
2018-09-26T04:36:54.391Z,3.40
2018-09-26T04:39:27.452Z,2.97
2018-09-26T04:42:01.003Z,3.17
2018-09-26T04:44:40.513Z,2.90
2018-09-26T04:47:14.315Z,3.87
2018-09-26T04:49:47.842Z,3.70
2018-09-26T04:52:21.540Z,3.63
2018-09-26T04:54:54.858Z,4.10
2018-09-26T04:57:28.967Z,3.37
2018-09-26T05:00:03.294Z,4.20
2018-09-26T05:02:37.224Z,3.37
2018-09-26T05:05:10.274Z,3.40
2018-09-26T05:07:43.225Z,3.70
2018-09-26T05:10:16.430Z,3.67
2018-09-26T05:12:50.115Z,3.20
2018-09-26T05:15:23.484Z,2.80
2018-09-26T05:17:56.812Z,3.43
2018-09-26T05:20:30.200Z,3.50
2018-09-26T05:23:09.168Z,3.40
2018-09-26T05:25:50.688Z,3.47
2018-09-26T05:28:26.295Z,4.30
2018-09-26T05:31:04.637Z,5.10
2018-09-26T05:33:38.486Z,6.23
2018-09-26T05:36:12.660Z,5.03
2018-09-26T05:38:46.788Z,4.30
2018-09-26T05:41:20.123Z,3.97
2018-09-26T05:43:56.633Z,4.47
2018-09-26T05:46:36.705Z,4.30
2018-09-26T05:49:09.716Z,4.03
2018-09-26T05:51:44.332Z,6.40
2018-09-26T05:54:19.262Z,4.73
2018-09-26T05:56:52.479Z,4.37
2018-09-26T05:59:26.368Z,3.83
2018-09-26T06:01:59.890Z,4.17
2018-09-26T06:04:34.345Z,3.53
2018-09-26T06:07:13.291Z,3.57
2018-09-26T06:09:51.098Z,3.87
2018-09-26T06:12:25.139Z,3.30
2018-09-26T06:15:05.362Z,3.90
2018-09-26T06:17:38.851Z,3.50
2018-09-26T06:20:12.255Z,3.77
2018-09-26T06:22:54.819Z,3.83
2018-09-26T06:25:28.586Z,3.47
2018-09-26T06:28:02.265Z,3.63
2018-09-26T06:30:38.945Z,3.30
2018-09-26T06:33:12.946Z,3.00
2018-09-26T06:35:46.338Z,3.50
2018-09-26T06:38:19.847Z,2.90
2018-09-26T06:40:53.518Z,3.63
2018-09-26T06:43:31.838Z,3.87
2018-09-26T06:46:15.541Z,3.30
2018-09-26T06:48:49.369Z,3.20
2018-09-26T06:51:22.562Z,3.50
2018-09-26T06:53:56.198Z,3.57
2018-09-26T06:56:35.489Z,3.47
2018-09-26T06:59:10.407Z,3.40
2018-09-26T07:01:43.706Z,3.70
2018-09-26T07:04:17.496Z,3.63
2018-09-26T07:06:51.702Z,3.40
2018-09-26T07:09:31.098Z,3.70
2018-09-26T07:12:04.743Z,3.60
2018-09-26T07:14:38.185Z,3.77
2018-09-26T07:17:11.780Z,4.40
2018-09-26T07:19:45.194Z,4.50
2018-09-26T07:22:18.720Z,4.33
2018-09-26T07:24:52.231Z,4.07
2018-09-26T07:27:25.733Z,4.53
2018-09-26T07:29:59.588Z,4.20
2018-09-26T07:32:34.609Z,4.10
2018-09-26T07:35:08.850Z,4.73
2018-09-26T07:37:42.777Z,4.03
2018-09-26T07:40:16.117Z,4.70
2018-09-26T07:42:50.020Z,3.77
2018-09-26T14:33:32.988Z,6.80
2018-09-26T14:36:07.936Z,6.10
2018-09-26T14:38:41.567Z,6.27
2018-09-26T14:41:16.674Z,6.33
2018-09-26T14:43:50.202Z,6.53
2018-09-26T14:46:23.330Z,5.83
2018-09-26T14:48:57.176Z,5.50
2018-09-26T14:51:32.747Z,6.63
2018-09-26T14:54:06.187Z,6.67
2018-09-26T14:56:39.661Z,5.73
2018-09-26T14:59:13.061Z,5.70
2018-09-26T15:01:47.284Z,4.83
2018-09-26T15:04:20.470Z,5.40
2018-09-26T15:06:53.825Z,5.20
2018-09-26T15:09:26.920Z,5.40
2018-09-26T15:12:00.304Z,5.27
2018-09-26T15:14:33.737Z,5.37
2018-09-26T15:17:07.275Z,5.60
2018-09-26T15:19:40.747Z,5.20
2018-09-26T15:22:14.588Z,6.60
2018-09-26T15:24:50.684Z,6.77
2018-09-26T15:27:23.688Z,7.67
2018-09-26T15:29:58.221Z,8.33
2018-09-26T15:32:31.987Z,7.43
2018-09-26T15:35:04.950Z,8.30
2018-09-26T15:37:38.297Z,7.87
2018-09-26T15:40:11.528Z,7.90
2018-09-26T15:42:44.907Z,8.13
2018-09-26T15:45:17.889Z,7.90
2018-09-26T15:47:51.189Z,8.80
2018-09-26T15:50:24.526Z,8.50
2018-09-26T15:52:58.006Z,8.80
2018-09-26T15:55:31.236Z,8.43
2018-09-26T15:58:04.645Z,8.13
2018-09-26T16:00:37.965Z,8.83
2018-09-26T16:03:11.983Z,9.13
2018-09-26T16:05:45.413Z,9.23
2018-09-26T16:08:18.882Z,9.00
2018-09-26T16:10:52.356Z,8.90
2018-09-26T16:13:25.892Z,9.63
2018-09-26T16:15:59.278Z,9.17
2018-09-26T16:18:32.344Z,9.70
2018-09-26T16:21:05.609Z,9.50
2018-09-26T16:23:38.786Z,9.53
2018-09-26T16:26:11.968Z,9.43
2018-09-26T16:28:45.291Z,10.13
2018-09-26T16:31:18.394Z,10.03
2018-09-26T16:33:51.821Z,9.33
2018-09-26T16:36:25.273Z,10.20
2018-09-26T16:38:58.611Z,9.77
2018-09-26T16:41:32.248Z,9.07
2018-09-26T16:44:05.958Z,9.77
2018-09-26T16:46:39.211Z,9.80
2018-09-26T16:49:12.611Z,9.97
2018-09-26T16:51:46.325Z,9.17
2018-09-26T16:54:19.829Z,8.53
2018-09-26T16:56:52.992Z,9.03
2018-09-26T16:59:26.591Z,9.67
2018-09-26T17:02:00.119Z,10.63
2018-09-26T17:04:33.557Z,10.03
2018-09-26T17:07:07.237Z,10.63
2018-09-26T17:09:40.476Z,9.57
2018-09-26T17:12:13.656Z,9.63
2018-09-26T17:14:48.341Z,10.20
2018-09-26T17:17:21.499Z,10.50
2018-09-26T17:19:56.169Z,10.20
2018-09-26T17:22:29.571Z,10.17
2018-09-26T17:25:02.582Z,11.27
2018-09-26T17:27:35.753Z,11.17
2018-09-26T17:30:08.956Z,10.80
2018-09-26T17:32:42.461Z,11.47
2018-09-26T17:35:15.760Z,11.20
2018-09-26T17:37:49.291Z,10.60
2018-09-26T17:40:22.737Z,11.67
2018-09-26T17:42:55.894Z,10.67
2018-09-26T17:45:35.267Z,10.50
2018-09-26T17:48:08.558Z,11.13
2018-09-26T17:50:42.980Z,10.90
2018-09-26T17:53:16.211Z,10.13
2018-09-26T17:55:49.443Z,10.50
2018-09-26T17:58:22.655Z,10.07
2018-09-26T18:00:55.787Z,11.23
2018-09-26T18:03:29.630Z,10.63
2018-09-26T18:06:02.885Z,11.63
2018-09-26T18:08:36.232Z,10.30
2018-09-26T18:11:09.596Z,10.10
2018-09-26T18:13:42.869Z,10.50
2018-09-26T18:16:16.128Z,11.43
2018-09-26T18:18:50.423Z,10.60
2018-09-26T18:21:23.584Z,10.20
2018-09-26T18:23:56.891Z,10.07
2018-09-26T18:26:30.128Z,10.07
2018-09-26T18:29:03.169Z,9.83
2018-09-26T18:31:41.554Z,9.27
2018-09-26T18:34:14.932Z,9.07
2018-09-26T18:36:48.064Z,8.97
2018-09-26T18:39:21.458Z,10.63
2018-09-26T18:41:54.963Z,9.87
2018-09-26T18:44:28.551Z,9.70
2018-09-26T18:47:02.122Z,9.10
2018-09-26T18:49:36.193Z,9.87
2018-09-26T18:52:09.538Z,9.57
2018-09-26T18:54:43.253Z,9.50
2018-09-26T18:57:16.623Z,10.27
2018-09-26T18:59:50.199Z,9.90
2018-09-26T19:02:23.319Z,9.47
2018-09-26T19:04:57.587Z,9.13
2018-09-26T19:07:32.169Z,9.43
2018-09-26T19:10:05.562Z,9.20
2018-09-26T19:12:38.650Z,9.47
2018-09-26T19:15:12.165Z,9.23
2018-09-26T19:17:45.445Z,9.80
2018-09-26T19:20:18.464Z,10.00
2018-09-26T19:22:51.872Z,10.00
2018-09-26T19:25:24.852Z,9.83
2018-09-26T19:27:58.284Z,9.70
2018-09-26T19:30:31.903Z,9.80
2018-09-26T19:33:05.057Z,10.20
2018-09-26T19:35:38.235Z,9.83
2018-09-26T19:38:11.483Z,10.80
2018-09-26T19:40:45.350Z,9.70
2018-09-26T19:43:18.523Z,8.93
2018-09-26T19:45:52.028Z,10.07
2018-09-26T19:48:25.277Z,10.23
2018-09-26T19:50:58.643Z,9.63
2018-09-26T19:53:32.290Z,9.17
2018-09-26T19:56:05.786Z,9.03
2018-09-26T20:01:17.171Z,9.03
2018-09-26T20:03:50.679Z,8.37
2018-09-26T20:06:24.283Z,9.50
2018-09-26T20:08:57.666Z,9.63
2018-09-26T20:11:31.030Z,9.60
2018-09-26T20:14:04.164Z,9.30
2018-09-26T20:16:38.280Z,9.90
2018-09-26T20:19:11.944Z,8.73
2018-09-26T20:21:45.485Z,8.90
2018-09-26T20:24:19.588Z,8.77
2018-09-26T20:26:53.211Z,8.37
2018-09-26T20:29:27.182Z,9.17
2018-09-26T20:32:00.945Z,9.03
2018-09-26T20:34:34.521Z,8.90
2018-09-26T20:37:07.924Z,9.13
2018-09-26T20:39:41.674Z,9.57
2018-09-26T20:42:15.346Z,9.57
2018-09-26T20:44:48.572Z,9.20
2018-09-26T20:47:28.048Z,8.73
2018-09-26T20:50:01.698Z,8.70
2018-09-26T20:52:35.230Z,9.17
2018-09-26T20:55:08.773Z,9.37
2018-09-26T20:57:42.236Z,9.20
2018-09-26T21:00:16.286Z,9.43
2018-09-26T21:02:50.101Z,9.70
2018-09-26T21:05:23.684Z,8.10
2018-09-26T21:07:57.272Z,7.90
2018-09-26T21:10:30.931Z,7.27
2018-09-26T21:13:04.042Z,7.30
2018-09-26T21:15:37.501Z,7.27
2018-09-26T21:18:10.971Z,6.60
2018-09-26T21:20:45.853Z,7.63
2018-09-26T21:23:19.118Z,6.40
2018-09-26T21:25:52.521Z,6.20
2018-09-26T21:28:26.568Z,6.23
2018-09-26T21:30:59.605Z,5.77
2018-09-26T21:33:32.884Z,7.40
2018-09-26T21:36:05.969Z,6.60
2018-09-26T21:38:39.077Z,5.33
2018-09-26T21:41:16.340Z,5.63
2018-09-26T21:43:50.083Z,5.80
2018-09-26T21:46:25.373Z,5.50
2018-09-26T21:48:59.066Z,4.70
2018-09-26T21:51:32.472Z,5.00
2018-09-26T21:54:06.082Z,4.70
2018-09-26T21:56:39.587Z,4.90
2018-09-26T21:59:14.374Z,4.80
2018-09-26T22:01:47.455Z,5.27
2018-09-26T22:04:21.563Z,4.47
2018-09-26T22:06:55.352Z,4.37
2018-09-26T22:09:29.233Z,4.60
2018-09-26T22:12:02.422Z,4.63
2018-09-26T22:14:36.964Z,4.40
2018-09-26T22:17:10.308Z,4.90
2018-09-26T22:19:43.611Z,4.53
2018-09-26T22:22:16.787Z,4.50
2018-09-26T22:24:50.100Z,4.27
2018-09-26T22:27:23.266Z,4.90
2018-09-26T22:29:57.000Z,4.50
2018-09-26T22:32:30.448Z,4.50
2018-09-26T22:35:03.771Z,6.10
2018-09-26T22:37:36.933Z,5.40
2018-09-26T22:40:10.149Z,4.93
2018-09-26T22:42:43.532Z,5.00
2018-09-26T22:45:16.208Z,5.07
2018-09-26T22:47:49.526Z,5.43
2018-09-26T22:50:24.654Z,4.40
2018-09-26T22:52:57.372Z,4.37
2018-09-26T22:55:30.898Z,4.47
2018-09-26T22:58:04.405Z,4.57
2018-09-26T23:00:37.737Z,4.77
2018-09-26T23:03:11.033Z,4.87
2018-09-26T23:05:44.476Z,4.80
2018-09-26T23:08:17.570Z,4.80
2018-09-26T23:10:51.025Z,5.10
2018-09-26T23:13:24.411Z,5.10
2018-09-26T23:15:57.637Z,4.60
2018-09-26T23:18:30.909Z,5.00
2018-09-26T23:21:05.507Z,5.57
2018-09-26T23:23:38.798Z,5.10
2018-09-26T23:26:11.942Z,5.03
2018-09-26T23:28:45.074Z,5.13
2018-09-26T23:31:18.542Z,5.20
2018-09-26T23:33:51.874Z,4.83
2018-09-26T23:36:26.390Z,4.47
2018-09-26T23:38:59.621Z,4.60
2018-09-26T23:41:33.184Z,4.73
2018-09-26T23:44:06.565Z,4.90
2018-09-26T23:46:39.757Z,5.17
2018-09-26T23:49:13.204Z,5.20
2018-09-26T23:51:46.737Z,4.80
2018-09-26T23:54:20.733Z,4.93
2018-09-26T23:56:53.763Z,5.20
2018-09-26T23:59:26.754Z,5.37
